sensor_id;sensor_type;location;lat;lon;timestamp;P1;durP1;ratioP1;P2;durP2;ratioP2
35312;SDS011;21425;50.454;30.466;2023-08-20T00:01:16;16.90;;;9.18;;
35312;SDS011;21425;50.454;30.466;2023-08-20T00:03:45;15.25;;;9.10;;
35312;SDS011;21425;50.454;30.466;2023-08-20T00:06:11;19.10;;;9.90;;
35312;SDS011;21425;50.454;30.466;2023-08-20T00:08:37;17.70;;;9.43;;
35312;SDS011;21425;50.454;30.466;2023-08-20T00:11:03;17.85;;;10.35;;
35312;SDS011;21425;50.454;30.466;2023-08-20T00:13:30;12.02;;;9.10;;
35312;SDS011;21425;50.454;30.466;2023-08-20T00:15:56;15.68;;;9.85;;
35312;SDS011;21425;50.454;30.466;2023-08-20T00:18:22;13.70;;;10.10;;
35312;SDS011;21425;50.454;30.466;2023-08-20T00:20:48;18.95;;;11.30;;
35312;SDS011;21425;50.454;30.466;2023-08-20T00:23:13;14.02;;;9.13;;
35312;SDS011;21425;50.454;30.466;2023-08-20T00:25:39;17.08;;;9.90;;
35312;SDS011;21425;50.454;30.466;2023-08-20T00:28:05;13.27;;;9.77;;
35312;SDS011;21425;50.454;30.466;2023-08-20T00:30:31;13.85;;;9.77;;
35312;SDS011;21425;50.454;30.466;2023-08-20T00:32:57;12.80;;;9.57;;
35312;SDS011;21425;50.454;30.466;2023-08-20T00:35:23;12.15;;;9.25;;
35312;SDS011;21425;50.454;30.466;2023-08-20T00:37:49;17.70;;;10.50;;
35312;SDS011;21425;50.454;30.466;2023-08-20T00:40:15;13.32;;;9.55;;
35312;SDS011;21425;50.454;30.466;2023-08-20T00:42:41;15.55;;;10.35;;
35312;SDS011;21425;50.454;30.466;2023-08-20T00:45:07;17.40;;;11.48;;
35312;SDS011;21425;50.454;30.466;2023-08-20T00:47:33;14.85;;;10.18;;
35312;SDS011;21425;50.454;30.466;2023-08-20T00:50:00;17.23;;;9.88;;
35312;SDS011;21425;50.454;30.466;2023-08-20T00:52:30;12.80;;;9.45;;
35312;SDS011;21425;50.454;30.466;2023-08-20T00:54:56;15.15;;;10.50;;
35312;SDS011;21425;50.454;30.466;2023-08-20T00:57:23;14.52;;;10.25;;
35312;SDS011;21425;50.454;30.466;2023-08-20T00:59:48;15.68;;;10.32;;
35312;SDS011;21425;50.454;30.466;2023-08-20T01:02:16;22.85;;;11.63;;
35312;SDS011;21425;50.454;30.466;2023-08-20T01:04:42;16.13;;;10.48;;
35312;SDS011;21425;50.454;30.466;2023-08-20T01:07:14;19.17;;;11.80;;
35312;SDS011;21425;50.454;30.466;2023-08-20T01:10:05;15.70;;;11.10;;
35312;SDS011;21425;50.454;30.466;2023-08-20T01:12:34;17.77;;;10.75;;
35312;SDS011;21425;50.454;30.466;2023-08-20T01:15:00;18.05;;;12.25;;
35312;SDS011;21425;50.454;30.466;2023-08-20T01:17:25;18.50;;;11.63;;
35312;SDS011;21425;50.454;30.466;2023-08-20T01:19:51;17.38;;;11.70;;
35312;SDS011;21425;50.454;30.466;2023-08-20T01:27:43;17.27;;;11.20;;
35312;SDS011;21425;50.454;30.466;2023-08-20T01:30:16;21.13;;;11.27;;
35312;SDS011;21425;50.454;30.466;2023-08-20T01:32:43;18.13;;;12.55;;
35312;SDS011;21425;50.454;30.466;2023-08-20T01:35:13;18.98;;;11.73;;
35312;SDS011;21425;50.454;30.466;2023-08-20T01:37:39;17.27;;;11.85;;
35312;SDS011;21425;50.454;30.466;2023-08-20T01:40:06;20.40;;;12.75;;
35312;SDS011;21425;50.454;30.466;2023-08-20T01:42:33;17.13;;;10.93;;
35312;SDS011;21425;50.454;30.466;2023-08-20T01:44:58;20.17;;;11.93;;
35312;SDS011;21425;50.454;30.466;2023-08-20T01:47:24;17.33;;;12.80;;
35312;SDS011;21425;50.454;30.466;2023-08-20T01:49:50;20.08;;;12.60;;
35312;SDS011;21425;50.454;30.466;2023-08-20T01:52:16;19.02;;;12.60;;
35312;SDS011;21425;50.454;30.466;2023-08-20T01:54:41;15.15;;;11.40;;
35312;SDS011;21425;50.454;30.466;2023-08-20T01:57:07;21.05;;;11.70;;
35312;SDS011;21425;50.454;30.466;2023-08-20T01:59:33;19.63;;;11.38;;
35312;SDS011;21425;50.454;30.466;2023-08-20T02:01:59;26.98;;;12.40;;
35312;SDS011;21425;50.454;30.466;2023-08-20T02:04:25;18.10;;;11.27;;
35312;SDS011;21425;50.454;30.466;2023-08-20T02:06:51;21.45;;;12.40;;
35312;SDS011;21425;50.454;30.466;2023-08-20T02:09:17;17.90;;;11.95;;
35312;SDS011;21425;50.454;30.466;2023-08-20T02:11:44;18.05;;;11.85;;
35312;SDS011;21425;50.454;30.466;2023-08-20T02:14:10;16.80;;;11.23;;
35312;SDS011;21425;50.454;30.466;2023-08-20T02:16:36;22.73;;;12.70;;
35312;SDS011;21425;50.454;30.466;2023-08-20T02:19:02;18.55;;;12.57;;
35312;SDS011;21425;50.454;30.466;2023-08-20T02:21:28;20.83;;;11.48;;
35312;SDS011;21425;50.454;30.466;2023-08-20T02:23:54;17.55;;;11.35;;
35312;SDS011;21425;50.454;30.466;2023-08-20T02:26:19;16.42;;;11.75;;
35312;SDS011;21425;50.454;30.466;2023-08-20T02:28:45;21.65;;;12.35;;
35312;SDS011;21425;50.454;30.466;2023-08-20T02:31:11;14.50;;;10.85;;
35312;SDS011;21425;50.454;30.466;2023-08-20T02:33:37;19.23;;;12.15;;
35312;SDS011;21425;50.454;30.466;2023-08-20T02:36:03;20.02;;;11.15;;
35312;SDS011;21425;50.454;30.466;2023-08-20T02:38:29;16.48;;;12.18;;
35312;SDS011;21425;50.454;30.466;2023-08-20T02:40:54;17.20;;;11.52;;
35312;SDS011;21425;50.454;30.466;2023-08-20T02:43:20;17.05;;;10.77;;
35312;SDS011;21425;50.454;30.466;2023-08-20T02:45:46;16.17;;;11.73;;
35312;SDS011;21425;50.454;30.466;2023-08-20T02:48:12;19.67;;;12.30;;
35312;SDS011;21425;50.454;30.466;2023-08-20T02:50:38;24.02;;;13.30;;
35312;SDS011;21425;50.454;30.466;2023-08-20T02:53:03;17.65;;;13.23;;
35312;SDS011;21425;50.454;30.466;2023-08-20T02:55:30;17.05;;;12.13;;
35312;SDS011;21425;50.454;30.466;2023-08-20T02:57:56;19.15;;;12.40;;
35312;SDS011;21425;50.454;30.466;2023-08-20T03:00:22;23.50;;;12.23;;
35312;SDS011;21425;50.454;30.466;2023-08-20T03:02:48;18.65;;;12.70;;
35312;SDS011;21425;50.454;30.466;2023-08-20T03:05:14;22.27;;;13.40;;
35312;SDS011;21425;50.454;30.466;2023-08-20T03:07:40;23.90;;;14.00;;
35312;SDS011;21425;50.454;30.466;2023-08-20T03:10:06;18.98;;;13.05;;
35312;SDS011;21425;50.454;30.466;2023-08-20T03:12:31;17.15;;;11.38;;
35312;SDS011;21425;50.454;30.466;2023-08-20T03:14:57;15.60;;;10.98;;
35312;SDS011;21425;50.454;30.466;2023-08-20T03:17:23;18.00;;;11.02;;
35312;SDS011;21425;50.454;30.466;2023-08-20T03:19:56;17.73;;;11.23;;
35312;SDS011;21425;50.454;30.466;2023-08-20T03:22:23;17.27;;;10.30;;
35312;SDS011;21425;50.454;30.466;2023-08-20T03:24:49;16.40;;;11.15;;
35312;SDS011;21425;50.454;30.466;2023-08-20T03:27:15;14.60;;;11.07;;
35312;SDS011;21425;50.454;30.466;2023-08-20T03:29:42;15.07;;;10.38;;
35312;SDS011;21425;50.454;30.466;2023-08-20T03:32:07;15.88;;;9.50;;
35312;SDS011;21425;50.454;30.466;2023-08-20T03:34:33;12.00;;;8.88;;
35312;SDS011;21425;50.454;30.466;2023-08-20T03:36:59;14.27;;;8.98;;
35312;SDS011;21425;50.454;30.466;2023-08-20T03:39:24;13.77;;;8.63;;
35312;SDS011;21425;50.454;30.466;2023-08-20T03:41:50;13.60;;;8.80;;
35312;SDS011;21425;50.454;30.466;2023-08-20T03:44:16;13.73;;;8.68;;
35312;SDS011;21425;50.454;30.466;2023-08-20T03:46:42;13.10;;;9.32;;
35312;SDS011;21425;50.454;30.466;2023-08-20T03:49:08;14.45;;;9.25;;
35312;SDS011;21425;50.454;30.466;2023-08-20T03:51:35;13.85;;;10.52;;
35312;SDS011;21425;50.454;30.466;2023-08-20T03:54:01;13.07;;;9.73;;
35312;SDS011;21425;50.454;30.466;2023-08-20T03:56:27;13.45;;;9.68;;
35312;SDS011;21425;50.454;30.466;2023-08-20T03:58:52;17.23;;;10.32;;
35312;SDS011;21425;50.454;30.466;2023-08-20T04:01:19;18.10;;;9.88;;
35312;SDS011;21425;50.454;30.466;2023-08-20T04:03:47;12.18;;;9.30;;
35312;SDS011;21425;50.454;30.466;2023-08-20T04:06:13;15.00;;;10.45;;
35312;SDS011;21425;50.454;30.466;2023-08-20T04:08:39;20.58;;;11.40;;
35312;SDS011;21425;50.454;30.466;2023-08-20T04:11:05;13.40;;;10.25;;
35312;SDS011;21425;50.454;30.466;2023-08-20T04:13:31;15.32;;;10.45;;
35312;SDS011;21425;50.454;30.466;2023-08-20T04:15:57;16.40;;;10.93;;
35312;SDS011;21425;50.454;30.466;2023-08-20T04:18:23;14.73;;;10.57;;
35312;SDS011;21425;50.454;30.466;2023-08-20T04:20:52;18.17;;;11.60;;
35312;SDS011;21425;50.454;30.466;2023-08-20T04:23:18;15.30;;;10.73;;
35312;SDS011;21425;50.454;30.466;2023-08-20T04:25:45;21.73;;;12.45;;
35312;SDS011;21425;50.454;30.466;2023-08-20T04:28:12;14.43;;;10.77;;
35312;SDS011;21425;50.454;30.466;2023-08-20T04:30:38;15.77;;;11.68;;
35312;SDS011;21425;50.454;30.466;2023-08-20T04:33:04;23.33;;;10.70;;
35312;SDS011;21425;50.454;30.466;2023-08-20T04:35:30;12.05;;;9.15;;
35312;SDS011;21425;50.454;30.466;2023-08-20T04:37:56;17.83;;;11.05;;
35312;SDS011;21425;50.454;30.466;2023-08-20T04:40:22;15.30;;;10.23;;
35312;SDS011;21425;50.454;30.466;2023-08-20T04:42:48;13.77;;;10.45;;
35312;SDS011;21425;50.454;30.466;2023-08-20T04:45:14;21.98;;;11.02;;
35312;SDS011;21425;50.454;30.466;2023-08-20T04:47:42;15.55;;;11.35;;
35312;SDS011;21425;50.454;30.466;2023-08-20T04:50:08;14.57;;;10.05;;
35312;SDS011;21425;50.454;30.466;2023-08-20T04:52:34;13.48;;;9.73;;
35312;SDS011;21425;50.454;30.466;2023-08-20T04:55:00;14.70;;;10.90;;
35312;SDS011;21425;50.454;30.466;2023-08-20T04:57:26;11.80;;;9.45;;
35312;SDS011;21425;50.454;30.466;2023-08-20T04:59:52;14.98;;;10.48;;
35312;SDS011;21425;50.454;30.466;2023-08-20T05:02:18;13.15;;;9.07;;
35312;SDS011;21425;50.454;30.466;2023-08-20T05:04:43;15.48;;;10.32;;
35312;SDS011;21425;50.454;30.466;2023-08-20T05:07:09;17.17;;;10.00;;
35312;SDS011;21425;50.454;30.466;2023-08-20T05:09:34;13.88;;;10.35;;
35312;SDS011;21425;50.454;30.466;2023-08-20T05:12:00;15.57;;;10.23;;
35312;SDS011;21425;50.454;30.466;2023-08-20T05:14:27;22.73;;;11.52;;
35312;SDS011;21425;50.454;30.466;2023-08-20T05:16:53;14.90;;;9.98;;
35312;SDS011;21425;50.454;30.466;2023-08-20T05:19:19;14.80;;;10.68;;
35312;SDS011;21425;50.454;30.466;2023-08-20T05:21:46;16.80;;;10.98;;
35312;SDS011;21425;50.454;30.466;2023-08-20T05:24:11;17.10;;;11.15;;
35312;SDS011;21425;50.454;30.466;2023-08-20T05:26:37;15.38;;;10.63;;
35312;SDS011;21425;50.454;30.466;2023-08-20T05:29:02;14.93;;;8.93;;
35312;SDS011;21425;50.454;30.466;2023-08-20T05:31:29;18.98;;;11.25;;
35312;SDS011;21425;50.454;30.466;2023-08-20T05:33:55;17.40;;;10.65;;
35312;SDS011;21425;50.454;30.466;2023-08-20T05:36:20;20.83;;;10.35;;
35312;SDS011;21425;50.454;30.466;2023-08-20T05:38:46;20.30;;;10.40;;
35312;SDS011;21425;50.454;30.466;2023-08-20T05:41:12;14.50;;;8.13;;
35312;SDS011;21425;50.454;30.466;2023-08-20T05:43:38;13.75;;;7.82;;
35312;SDS011;21425;50.454;30.466;2023-08-20T05:46:03;16.38;;;8.90;;
35312;SDS011;21425;50.454;30.466;2023-08-20T05:48:29;12.80;;;7.63;;
35312;SDS011;21425;50.454;30.466;2023-08-20T05:50:55;11.60;;;7.45;;
35312;SDS011;21425;50.454;30.466;2023-08-20T05:53:21;19.08;;;8.40;;
35312;SDS011;21425;50.454;30.466;2023-08-20T05:55:47;11.15;;;7.28;;
35312;SDS011;21425;50.454;30.466;2023-08-20T05:58:13;10.98;;;6.78;;
35312;SDS011;21425;50.454;30.466;2023-08-20T06:00:38;9.90;;;6.57;;
35312;SDS011;21425;50.454;30.466;2023-08-20T06:03:04;8.88;;;6.18;;
35312;SDS011;21425;50.454;30.466;2023-08-20T06:05:29;9.98;;;7.18;;
35312;SDS011;21425;50.454;30.466;2023-08-20T06:07:55;9.35;;;6.22;;
35312;SDS011;21425;50.454;30.466;2023-08-20T06:10:21;13.55;;;6.88;;
35312;SDS011;21425;50.454;30.466;2023-08-20T06:12:47;8.43;;;7.35;;
35312;SDS011;21425;50.454;30.466;2023-08-20T06:15:14;9.23;;;6.10;;
35312;SDS011;21425;50.454;30.466;2023-08-20T06:17:40;10.75;;;6.20;;
35312;SDS011;21425;50.454;30.466;2023-08-20T06:20:05;12.88;;;6.72;;
35312;SDS011;21425;50.454;30.466;2023-08-20T06:22:33;12.23;;;6.47;;
35312;SDS011;21425;50.454;30.466;2023-08-20T06:24:59;9.00;;;6.35;;
35312;SDS011;21425;50.454;30.466;2023-08-20T06:27:25;10.18;;;5.55;;
35312;SDS011;21425;50.454;30.466;2023-08-20T06:29:51;10.52;;;6.88;;
35312;SDS011;21425;50.454;30.466;2023-08-20T06:32:17;8.85;;;5.60;;
35312;SDS011;21425;50.454;30.466;2023-08-20T06:34:43;8.68;;;5.85;;
35312;SDS011;21425;50.454;30.466;2023-08-20T06:37:09;10.55;;;5.68;;
35312;SDS011;21425;50.454;30.466;2023-08-20T06:39:34;9.70;;;5.95;;
35312;SDS011;21425;50.454;30.466;2023-08-20T06:42:00;9.40;;;5.88;;
35312;SDS011;21425;50.454;30.466;2023-08-20T06:44:25;8.93;;;5.50;;
35312;SDS011;21425;50.454;30.466;2023-08-20T06:46:51;10.40;;;5.97;;
35312;SDS011;21425;50.454;30.466;2023-08-20T06:49:17;11.45;;;5.75;;
35312;SDS011;21425;50.454;30.466;2023-08-20T06:51:42;11.80;;;6.07;;
35312;SDS011;21425;50.454;30.466;2023-08-20T06:54:08;9.77;;;6.15;;
35312;SDS011;21425;50.454;30.466;2023-08-20T06:56:34;8.23;;;6.88;;
35312;SDS011;21425;50.454;30.466;2023-08-20T06:59:00;13.23;;;7.35;;
35312;SDS011;21425;50.454;30.466;2023-08-20T07:01:28;10.60;;;6.45;;
35312;SDS011;21425;50.454;30.466;2023-08-20T07:03:53;12.18;;;6.57;;
35312;SDS011;21425;50.454;30.466;2023-08-20T07:06:19;15.30;;;7.10;;
35312;SDS011;21425;50.454;30.466;2023-08-20T07:08:45;11.55;;;8.07;;
35312;SDS011;21425;50.454;30.466;2023-08-20T07:11:11;11.27;;;7.45;;
35312;SDS011;21425;50.454;30.466;2023-08-20T07:13:37;10.85;;;6.88;;
35312;SDS011;21425;50.454;30.466;2023-08-20T07:16:03;9.10;;;6.55;;
35312;SDS011;21425;50.454;30.466;2023-08-20T07:18:29;10.65;;;6.65;;
35312;SDS011;21425;50.454;30.466;2023-08-20T07:20:55;12.50;;;6.20;;
35312;SDS011;21425;50.454;30.466;2023-08-20T07:23:21;9.73;;;6.18;;
35312;SDS011;21425;50.454;30.466;2023-08-20T07:25:47;6.85;;;4.65;;
35312;SDS011;21425;50.454;30.466;2023-08-20T07:28:17;6.13;;;4.93;;
35312;SDS011;21425;50.454;30.466;2023-08-20T07:30:51;8.40;;;5.18;;
35312;SDS011;21425;50.454;30.466;2023-08-20T07:33:17;9.85;;;5.15;;
35312;SDS011;21425;50.454;30.466;2023-08-20T07:35:43;11.60;;;5.93;;
35312;SDS011;21425;50.454;30.466;2023-08-20T07:38:09;16.30;;;5.50;;
35312;SDS011;21425;50.454;30.466;2023-08-20T07:40:35;8.38;;;5.55;;
35312;SDS011;21425;50.454;30.466;2023-08-20T07:43:01;9.68;;;6.28;;
35312;SDS011;21425;50.454;30.466;2023-08-20T07:45:27;10.25;;;6.00;;
35312;SDS011;21425;50.454;30.466;2023-08-20T07:47:53;15.57;;;6.65;;
35312;SDS011;21425;50.454;30.466;2023-08-20T07:50:19;10.80;;;6.43;;
35312;SDS011;21425;50.454;30.466;2023-08-20T07:52:45;10.48;;;5.80;;
35312;SDS011;21425;50.454;30.466;2023-08-20T07:55:11;14.95;;;5.63;;
35312;SDS011;21425;50.454;30.466;2023-08-20T07:57:37;8.68;;;5.85;;
35312;SDS011;21425;50.454;30.466;2023-08-20T08:00:03;8.95;;;5.90;;
35312;SDS011;21425;50.454;30.466;2023-08-20T08:02:30;10.75;;;5.78;;
35312;SDS011;21425;50.454;30.466;2023-08-20T08:04:55;8.75;;;5.93;;
35312;SDS011;21425;50.454;30.466;2023-08-20T08:07:21;10.27;;;5.70;;
35312;SDS011;21425;50.454;30.466;2023-08-20T08:09:47;8.07;;;5.97;;
35312;SDS011;21425;50.454;30.466;2023-08-20T08:12:12;9.35;;;5.95;;
35312;SDS011;21425;50.454;30.466;2023-08-20T08:14:38;8.50;;;6.15;;
35312;SDS011;21425;50.454;30.466;2023-08-20T08:17:05;8.43;;;6.15;;
35312;SDS011;21425;50.454;30.466;2023-08-20T08:19:32;10.35;;;5.70;;
35312;SDS011;21425;50.454;30.466;2023-08-20T08:21:58;11.32;;;5.50;;
35312;SDS011;21425;50.454;30.466;2023-08-20T08:24:24;7.95;;;5.45;;
35312;SDS011;21425;50.454;30.466;2023-08-20T08:26:50;10.70;;;4.50;;
35312;SDS011;21425;50.454;30.466;2023-08-20T08:29:16;10.98;;;5.18;;
35312;SDS011;21425;50.454;30.466;2023-08-20T08:31:41;8.82;;;5.75;;
35312;SDS011;21425;50.454;30.466;2023-08-20T08:34:07;8.55;;;5.40;;
35312;SDS011;21425;50.454;30.466;2023-08-20T08:36:32;14.73;;;5.63;;
35312;SDS011;21425;50.454;30.466;2023-08-20T08:38:58;5.80;;;4.93;;
35312;SDS011;21425;50.454;30.466;2023-08-20T08:41:24;11.48;;;5.20;;
35312;SDS011;21425;50.454;30.466;2023-08-20T08:43:53;10.93;;;5.78;;
35312;SDS011;21425;50.454;30.466;2023-08-20T08:46:22;8.00;;;4.90;;
35312;SDS011;21425;50.454;30.466;2023-08-20T08:48:49;9.00;;;5.57;;
35312;SDS011;21425;50.454;30.466;2023-08-20T08:51:14;5.82;;;4.60;;
35312;SDS011;21425;50.454;30.466;2023-08-20T08:53:41;8.27;;;4.88;;
35312;SDS011;21425;50.454;30.466;2023-08-20T08:56:09;9.10;;;5.25;;
35312;SDS011;21425;50.454;30.466;2023-08-20T08:58:35;9.65;;;5.72;;
35312;SDS011;21425;50.454;30.466;2023-08-20T09:01:01;8.02;;;4.72;;
35312;SDS011;21425;50.454;30.466;2023-08-20T09:03:27;10.95;;;5.95;;
35312;SDS011;21425;50.454;30.466;2023-08-20T09:05:57;8.57;;;4.78;;
35312;SDS011;21425;50.454;30.466;2023-08-20T09:08:29;8.13;;;5.03;;
35312;SDS011;21425;50.454;30.466;2023-08-20T09:10:56;9.13;;;5.05;;
35312;SDS011;21425;50.454;30.466;2023-08-20T09:13:23;7.53;;;5.03;;
35312;SDS011;21425;50.454;30.466;2023-08-20T09:15:51;7.80;;;5.15;;
35312;SDS011;21425;50.454;30.466;2023-08-20T09:18:17;9.48;;;5.20;;
35312;SDS011;21425;50.454;30.466;2023-08-20T09:20:43;7.75;;;4.80;;
35312;SDS011;21425;50.454;30.466;2023-08-20T09:23:12;11.55;;;5.15;;
35312;SDS011;21425;50.454;30.466;2023-08-20T09:25:38;9.13;;;4.95;;
35312;SDS011;21425;50.454;30.466;2023-08-20T09:28:04;7.45;;;4.60;;
35312;SDS011;21425;50.454;30.466;2023-08-20T09:30:31;10.68;;;4.97;;
35312;SDS011;21425;50.454;30.466;2023-08-20T09:35:29;5.70;;;4.43;;
35312;SDS011;21425;50.454;30.466;2023-08-20T09:37:58;8.75;;;4.95;;
35312;SDS011;21425;50.454;30.466;2023-08-20T09:40:25;9.93;;;5.20;;
35312;SDS011;21425;50.454;30.466;2023-08-20T09:42:51;7.40;;;5.22;;
35312;SDS011;21425;50.454;30.466;2023-08-20T09:45:18;8.98;;;5.03;;
35312;SDS011;21425;50.454;30.466;2023-08-20T09:47:44;6.25;;;4.63;;
35312;SDS011;21425;50.454;30.466;2023-08-20T09:50:13;8.18;;;5.00;;
35312;SDS011;21425;50.454;30.466;2023-08-20T09:55:20;11.68;;;4.88;;
35312;SDS011;21425;50.454;30.466;2023-08-20T09:57:47;7.82;;;4.45;;
35312;SDS011;21425;50.454;30.466;2023-08-20T10:00:13;8.60;;;4.90;;
35312;SDS011;21425;50.454;30.466;2023-08-20T10:02:40;16.85;;;4.78;;
35312;SDS011;21425;50.454;30.466;2023-08-20T10:05:07;7.40;;;4.45;;
35312;SDS011;21425;50.454;30.466;2023-08-20T10:07:33;9.27;;;5.03;;
35312;SDS011;21425;50.454;30.466;2023-08-20T10:10:00;7.85;;;4.63;;
35312;SDS011;21425;50.454;30.466;2023-08-20T10:12:27;9.82;;;5.00;;
35312;SDS011;21425;50.454;30.466;2023-08-20T10:14:53;9.23;;;4.93;;
35312;SDS011;21425;50.454;30.466;2023-08-20T10:17:19;7.15;;;4.47;;
35312;SDS011;21425;50.454;30.466;2023-08-20T10:19:46;7.30;;;4.45;;
35312;SDS011;21425;50.454;30.466;2023-08-20T10:22:12;8.32;;;4.32;;
35312;SDS011;21425;50.454;30.466;2023-08-20T10:24:46;7.25;;;4.10;;
35312;SDS011;21425;50.454;30.466;2023-08-20T10:27:13;8.23;;;4.32;;
35312;SDS011;21425;50.454;30.466;2023-08-20T10:29:41;5.80;;;4.22;;
35312;SDS011;21425;50.454;30.466;2023-08-20T10:32:11;8.63;;;4.07;;
35312;SDS011;21425;50.454;30.466;2023-08-20T10:34:38;8.68;;;5.20;;
35312;SDS011;21425;50.454;30.466;2023-08-20T10:37:10;12.68;;;5.78;;
35312;SDS011;21425;50.454;30.466;2023-08-20T10:39:36;8.27;;;4.93;;
35312;SDS011;21425;50.454;30.466;2023-08-20T10:44:55;13.43;;;5.38;;
35312;SDS011;21425;50.454;30.466;2023-08-20T10:47:25;6.63;;;5.43;;
35312;SDS011;21425;50.454;30.466;2023-08-20T10:49:52;9.95;;;5.80;;
35312;SDS011;21425;50.454;30.466;2023-08-20T10:52:19;14.38;;;5.30;;
35312;SDS011;21425;50.454;30.466;2023-08-20T10:54:50;7.78;;;5.57;;
35312;SDS011;21425;50.454;30.466;2023-08-20T10:57:19;7.95;;;4.82;;
35312;SDS011;21425;50.454;30.466;2023-08-20T10:59:55;6.65;;;5.05;;
35312;SDS011;21425;50.454;30.466;2023-08-20T11:02:25;9.18;;;5.75;;
35312;SDS011;21425;50.454;30.466;2023-08-20T11:04:51;7.90;;;5.03;;
35312;SDS011;21425;50.454;30.466;2023-08-20T11:07:18;7.30;;;5.70;;
35312;SDS011;21425;50.454;30.466;2023-08-20T11:09:45;6.40;;;5.05;;
35312;SDS011;21425;50.454;30.466;2023-08-20T11:12:16;8.18;;;5.43;;
35312;SDS011;21425;50.454;30.466;2023-08-20T11:14:42;5.53;;;4.57;;
35312;SDS011;21425;50.454;30.466;2023-08-20T11:17:08;9.13;;;5.65;;
35312;SDS011;21425;50.454;30.466;2023-08-20T11:19:34;9.65;;;5.65;;
35312;SDS011;21425;50.454;30.466;2023-08-20T11:22:01;11.40;;;5.85;;
35312;SDS011;21425;50.454;30.466;2023-08-20T11:24:30;7.20;;;5.35;;
35312;SDS011;21425;50.454;30.466;2023-08-20T11:26:57;6.85;;;5.68;;
35312;SDS011;21425;50.454;30.466;2023-08-20T11:29:24;9.90;;;5.70;;
35312;SDS011;21425;50.454;30.466;2023-08-20T11:31:50;9.75;;;5.72;;
35312;SDS011;21425;50.454;30.466;2023-08-20T11:34:20;7.75;;;5.97;;
35312;SDS011;21425;50.454;30.466;2023-08-20T11:36:45;8.82;;;6.05;;
35312;SDS011;21425;50.454;30.466;2023-08-20T11:39:13;9.88;;;5.15;;
35312;SDS011;21425;50.454;30.466;2023-08-20T11:41:39;6.43;;;5.82;;
35312;SDS011;21425;50.454;30.466;2023-08-20T11:44:07;7.82;;;5.55;;
35312;SDS011;21425;50.454;30.466;2023-08-20T11:46:33;9.35;;;5.68;;
35312;SDS011;21425;50.454;30.466;2023-08-20T11:49:08;13.15;;;6.40;;
35312;SDS011;21425;50.454;30.466;2023-08-20T11:51:37;7.70;;;5.75;;
35312;SDS011;21425;50.454;30.466;2023-08-20T11:54:06;16.85;;;5.97;;
35312;SDS011;21425;50.454;30.466;2023-08-20T11:56:33;12.07;;;5.85;;
35312;SDS011;21425;50.454;30.466;2023-08-20T11:59:00;7.95;;;5.55;;
35312;SDS011;21425;50.454;30.466;2023-08-20T12:01:30;8.23;;;6.75;;
35312;SDS011;21425;50.454;30.466;2023-08-20T12:04:03;9.52;;;6.50;;
35312;SDS011;21425;50.454;30.466;2023-08-20T12:06:29;8.15;;;5.88;;
35312;SDS011;21425;50.454;30.466;2023-08-20T12:08:57;8.38;;;5.80;;
35312;SDS011;21425;50.454;30.466;2023-08-20T12:11:27;11.82;;;6.53;;
35312;SDS011;21425;50.454;30.466;2023-08-20T12:13:53;8.88;;;6.25;;
35312;SDS011;21425;50.454;30.466;2023-08-20T12:16:23;12.52;;;6.30;;
35312;SDS011;21425;50.454;30.466;2023-08-20T12:18:50;10.35;;;6.03;;
35312;SDS011;21425;50.454;30.466;2023-08-20T12:21:17;7.30;;;5.63;;
35312;SDS011;21425;50.454;30.466;2023-08-20T12:23:43;8.30;;;5.97;;
35312;SDS011;21425;50.454;30.466;2023-08-20T12:26:09;9.05;;;6.40;;
35312;SDS011;21425;50.454;30.466;2023-08-20T12:28:35;7.05;;;5.82;;
35312;SDS011;21425;50.454;30.466;2023-08-20T12:31:00;8.73;;;5.72;;
35312;SDS011;21425;50.454;30.466;2023-08-20T12:33:28;10.05;;;6.22;;
35312;SDS011;21425;50.454;30.466;2023-08-20T12:35:54;8.38;;;6.28;;
35312;SDS011;21425;50.454;30.466;2023-08-20T12:38:20;11.57;;;5.63;;
35312;SDS011;21425;50.454;30.466;2023-08-20T12:40:46;9.55;;;6.30;;
35312;SDS011;21425;50.454;30.466;2023-08-20T12:43:12;7.25;;;5.72;;
35312;SDS011;21425;50.454;30.466;2023-08-20T12:45:38;8.65;;;5.95;;
35312;SDS011;21425;50.454;30.466;2023-08-20T12:48:04;10.80;;;5.95;;
35312;SDS011;21425;50.454;30.466;2023-08-20T12:50:32;7.57;;;5.45;;
35312;SDS011;21425;50.454;30.466;2023-08-20T12:53:01;7.70;;;5.82;;
35312;SDS011;21425;50.454;30.466;2023-08-20T12:55:34;7.88;;;5.43;;
35312;SDS011;21425;50.454;30.466;2023-08-20T12:58:00;9.30;;;5.00;;
35312;SDS011;21425;50.454;30.466;2023-08-20T13:00:26;7.20;;;5.00;;
35312;SDS011;21425;50.454;30.466;2023-08-20T13:02:56;5.60;;;4.50;;
35312;SDS011;21425;50.454;30.466;2023-08-20T13:05:22;9.63;;;4.68;;
35312;SDS011;21425;50.454;30.466;2023-08-20T13:07:49;7.45;;;5.13;;
35312;SDS011;21425;50.454;30.466;2023-08-20T13:10:15;6.30;;;4.80;;
35312;SDS011;21425;50.454;30.466;2023-08-20T13:12:41;6.82;;;4.57;;
35312;SDS011;21425;50.454;30.466;2023-08-20T13:15:09;6.13;;;4.28;;
35312;SDS011;21425;50.454;30.466;2023-08-20T13:17:35;9.45;;;4.80;;
35312;SDS011;21425;50.454;30.466;2023-08-20T13:20:02;6.93;;;4.07;;
35312;SDS011;21425;50.454;30.466;2023-08-20T13:22:28;7.68;;;4.45;;
35312;SDS011;21425;50.454;30.466;2023-08-20T13:24:54;7.90;;;3.50;;
35312;SDS011;21425;50.454;30.466;2023-08-20T13:27:20;4.60;;;4.10;;
35312;SDS011;21425;50.454;30.466;2023-08-20T13:29:46;5.75;;;4.40;;
35312;SDS011;21425;50.454;30.466;2023-08-20T13:32:12;8.43;;;4.20;;
35312;SDS011;21425;50.454;30.466;2023-08-20T13:34:38;8.88;;;3.92;;
35312;SDS011;21425;50.454;30.466;2023-08-20T13:37:03;5.15;;;4.18;;
35312;SDS011;21425;50.454;30.466;2023-08-20T13:39:29;7.30;;;4.65;;
35312;SDS011;21425;50.454;30.466;2023-08-20T13:41:55;10.68;;;4.57;;
35312;SDS011;21425;50.454;30.466;2023-08-20T13:44:21;5.05;;;4.32;;
35312;SDS011;21425;50.454;30.466;2023-08-20T13:46:47;6.13;;;5.03;;
35312;SDS011;21425;50.454;30.466;2023-08-20T13:49:12;4.90;;;4.07;;
35312;SDS011;21425;50.454;30.466;2023-08-20T13:51:38;12.00;;;4.47;;
35312;SDS011;21425;50.454;30.466;2023-08-20T13:54:04;7.68;;;4.32;;
35312;SDS011;21425;50.454;30.466;2023-08-20T13:56:30;7.93;;;4.00;;
35312;SDS011;21425;50.454;30.466;2023-08-20T13:58:56;4.95;;;3.85;;
35312;SDS011;21425;50.454;30.466;2023-08-20T14:01:22;7.65;;;4.00;;
35312;SDS011;21425;50.454;30.466;2023-08-20T14:03:47;5.00;;;3.78;;
35312;SDS011;21425;50.454;30.466;2023-08-20T14:06:15;5.07;;;4.10;;
35312;SDS011;21425;50.454;30.466;2023-08-20T14:08:42;7.03;;;4.07;;
35312;SDS011;21425;50.454;30.466;2023-08-20T14:11:08;8.32;;;4.07;;
35312;SDS011;21425;50.454;30.466;2023-08-20T14:13:34;8.70;;;4.20;;
35312;SDS011;21425;50.454;30.466;2023-08-20T14:16:00;7.85;;;4.28;;
35312;SDS011;21425;50.454;30.466;2023-08-20T14:18:27;6.75;;;3.92;;
35312;SDS011;21425;50.454;30.466;2023-08-20T14:20:53;5.65;;;3.40;;
35312;SDS011;21425;50.454;30.466;2023-08-20T14:23:19;6.40;;;3.83;;
35312;SDS011;21425;50.454;30.466;2023-08-20T14:25:45;7.30;;;3.75;;
35312;SDS011;21425;50.454;30.466;2023-08-20T14:28:11;5.43;;;3.95;;
35312;SDS011;21425;50.454;30.466;2023-08-20T14:30:37;4.53;;;3.58;;
35312;SDS011;21425;50.454;30.466;2023-08-20T14:33:03;5.43;;;3.78;;